Manchester, VT

2:58 AM EDT on August 21, 2014 (GMT -0400)
Zoey's Deli Weather Station | Change Station
CLOSE
Current Station
Personal Weather Station
Location: Manchester, VT
Elevation: 712 ft
Nearby Weather Stations

Elev 712 ft 43.17 °N, 73.05 °W | Updated 3 minutes ago

Overcast
Overcast
67.9 °F
Feels Like 67.9 °F
N
1.0
Wind Variable Wind from North
Gusts 3.0 mph

Today
High -- | Low -- °F
--% Chance of Precip.
Yesterday
High -- | Low -- °F
Precip. -- in
6:04 AM 7:45 PM
Waning Crescent, 16% visible
Pressure 30.03 in
Visibility 8.0 miles
Clouds Few 2700 ft
Mostly Cloudy 5000 ft
Overcast 7000 ft
Dew Point 62 °F
Humidity 80%
Rainfall 0.00 in
Snow Depth Not available.
UV 0 out of 12
Pollen 9.10 out of 12
PM2.5 Good
Flu Activity Not available.
METAR KDDH 210654Z AUTO 00000KT 8SM -RA FEW027 BKN050 OVC070 20/16 A3004 RMK AO2 RAB40 SLP167 P0001 T02000161

More Conditions Fewer Conditions

Pressure 30.03 in
Visibility 8.0 miles
Clouds Few 2700 ft
Mostly Cloudy 5000 ft
Overcast 7000 ft
Dew Point 62 °F
Humidity 80%
Rainfall 0.00 in
Snow Depth Not available.
UV 0 out of 12
Pollen 9.10 out of 12
PM2.5 Good
Flu Activity Not available.
METAR KDDH 210654Z AUTO 00000KT 8SM -RA FEW027 BKN050 OVC070 20/16 A3004 RMK AO2 RAB40 SLP167 P0001 T02000161

More Conditions Fewer Conditions

10-Day Weather Forecast

Almanac

Astronomy

Aug. 21, 2014 Rise Set
Actual Time 6:04 AM EDT 7:45 PM EDT
Civil Twilight 5:34 AM EDT 8:15 PM EDT
Nautical Twilight 4:57 AM EDT 8:52 PM EDT
Astronomical Twilight 4:18 AM EDT 9:31 PM EDT
Moon 2:29 AM EDT 5:14 PM EDT
Length of Visible Light 14h 41m
Length of Day
13h 41m
Tomorrow will be 2m 42s shorter.
Waning Crescent, 16% of the Moon is Illuminated
Today
Waning Crescent
Aug 25
New
Sep 2
First Quarter
Sep 8
Full
Sep 15
Last Quarter

Today's Extremes

State Highs State Lows

Community

WunderPhotos

Upload Photos

1,745,858 photos uploaded!

Nearby

Air Quality

  Air Quality AQ Index Pollutant
Yesterday Good
OZONE
Yesterday Good
PM2.5
Current Good
PM2.5
Thursday Good
PM2.5
Thursday Good
OZONE

Snow Depth

Station Depth Elevation
No new snow has been reported.

Earthquake Activity

City Distance Mag. Time & Date
Deep River Center, Connecticut 128 miles 2.7 3:09 AM EDT
2014-08-14
Minimum magnitude displayed is 2.5.

Coastal Water Temperatures

Place Temperature
No Stations Reporting

Nearby Weather Stations